Terminal Aerodrome Forecast
Issued by NWS Duluth, MN

Home | Current Version | Previous Version | Text Only | Print | Product List | Glossary On
Versions: 1 2 3 4 5 6 7 8 9 10 11 12 13 14 15 16 17
142
FTUS43 KDLH 182331
TAFDLH
TAF
KDLH 182331Z 1900/1924 21006KT P6SM SCT250
     FM190600 21006KT 5SM BR SCT006
      TEMPO 1910/1914 2SM BR BKN006
     FM192300 19007KT 6SM BR BKN007=

USA.gov is the U.S. government's official web portal to all federal, state and local government web resources and services.